sensor_id;sensor_type;location;lat;lon;timestamp;temperature;humidity
21489;DHT22;10906;45.194;5.684;2022-10-16T07:58:28;15.30;99.90
21489;DHT22;10906;45.194;5.684;2022-10-16T08:22:04;16.10;99.90
21489;DHT22;10906;45.194;5.684;2022-10-16T08:24:48;16.70;99.90
21489;DHT22;10906;45.194;5.684;2022-10-16T08:27:33;16.90;99.90
21489;DHT22;10906;45.194;5.684;2022-10-16T08:30:19;17.00;99.90
21489;DHT22;10906;45.194;5.684;2022-10-16T08:33:03;17.10;99.90
21489;DHT22;10906;45.194;5.684;2022-10-16T08:35:52;17.40;99.90
21489;DHT22;10906;45.194;5.684;2022-10-16T08:38:38;17.50;99.90
21489;DHT22;10906;45.194;5.684;2022-10-16T08:47:33;18.00;99.90
21489;DHT22;10906;45.194;5.684;2022-10-16T08:50:27;18.20;99.90
21489;DHT22;10906;45.194;5.684;2022-10-16T08:53:23;18.60;99.90
21489;DHT22;10906;45.194;5.684;2022-10-16T08:56:09;18.90;99.90
21489;DHT22;10906;45.194;5.684;2022-10-16T08:58:54;19.20;99.90
21489;DHT22;10906;45.194;5.684;2022-10-16T09:01:44;19.50;99.90
21489;DHT22;10906;45.194;5.684;2022-10-16T09:07:33;19.90;99.90
21489;DHT22;10906;45.194;5.684;2022-10-16T09:16:22;19.90;99.90
21489;DHT22;10906;45.194;5.684;2022-10-16T09:19:22;20.20;99.90
21489;DHT22;10906;45.194;5.684;2022-10-16T09:22:15;20.30;99.90
21489;DHT22;10906;45.194;5.684;2022-10-16T09:25:00;20.60;99.90
21489;DHT22;10906;45.194;5.684;2022-10-16T09:27:54;20.90;99.90
21489;DHT22;10906;45.194;5.684;2022-10-16T09:30:39;21.20;99.90
21489;DHT22;10906;45.194;5.684;2022-10-16T09:33:28;21.20;99.90
21489;DHT22;10906;45.194;5.684;2022-10-16T09:36:14;21.20;99.90
21489;DHT22;10906;45.194;5.684;2022-10-16T09:39:08;21.20;99.90
21489;DHT22;10906;45.194;5.684;2022-10-16T09:41:59;21.30;99.90
21489;DHT22;10906;45.194;5.684;2022-10-16T09:44:48;21.30;99.90
21489;DHT22;10906;45.194;5.684;2022-10-16T09:47:43;21.20;99.90
21489;DHT22;10906;45.194;5.684;2022-10-16T09:50:28;21.30;99.90
21489;DHT22;10906;45.194;5.684;2022-10-16T09:53:14;21.40;99.90
21489;DHT22;10906;45.194;5.684;2022-10-16T09:55:58;21.60;99.90
21489;DHT22;10906;45.194;5.684;2022-10-16T09:58:49;21.90;99.90
21489;DHT22;10906;45.194;5.684;2022-10-16T10:01:39;22.40;99.90
21489;DHT22;10906;45.194;5.684;2022-10-16T10:04:24;22.60;99.40
21489;DHT22;10906;45.194;5.684;2022-10-16T10:07:18;22.60;99.70
21489;DHT22;10906;45.194;5.684;2022-10-16T10:10:05;22.40;98.70
21489;DHT22;10906;45.194;5.684;2022-10-16T10:12:50;22.20;98.90
21489;DHT22;10906;45.194;5.684;2022-10-16T10:15:41;22.10;99.10
21489;DHT22;10906;45.194;5.684;2022-10-16T10:18:25;22.10;99.20
21489;DHT22;10906;45.194;5.684;2022-10-16T10:21:14;22.20;99.20
21489;DHT22;10906;45.194;5.684;2022-10-16T10:23:59;22.20;98.90
21489;DHT22;10906;45.194;5.684;2022-10-16T10:26:54;22.20;98.80
21489;DHT22;10906;45.194;5.684;2022-10-16T10:30:01;22.40;98.80
21489;DHT22;10906;45.194;5.684;2022-10-16T10:39:29;23.40;98.00
21489;DHT22;10906;45.194;5.684;2022-10-16T10:45:27;23.20;97.80
21489;DHT22;10906;45.194;5.684;2022-10-16T10:51:43;23.10;97.50
21489;DHT22;10906;45.194;5.684;2022-10-16T11:01:13;23.60;96.70
21489;DHT22;10906;45.194;5.684;2022-10-16T11:07:09;23.50;97.60
21489;DHT22;10906;45.194;5.684;2022-10-16T11:10:09;23.40;97.60
21489;DHT22;10906;45.194;5.684;2022-10-16T11:13:31;23.50;97.50
21489;DHT22;10906;45.194;5.684;2022-10-16T11:19:34;23.40;97.60
21489;DHT22;10906;45.194;5.684;2022-10-16T11:22:30;23.30;97.60
21489;DHT22;10906;45.194;5.684;2022-10-16T11:25:21;23.30;97.40
21489;DHT22;10906;45.194;5.684;2022-10-16T11:31:10;23.30;97.10
21489;DHT22;10906;45.194;5.684;2022-10-16T11:37:23;23.30;96.70
21489;DHT22;10906;45.194;5.684;2022-10-16T11:40:32;23.30;96.40
21489;DHT22;10906;45.194;5.684;2022-10-16T11:43:43;23.30;95.90
21489;DHT22;10906;45.194;5.684;2022-10-16T11:46:31;23.30;96.60
21489;DHT22;10906;45.194;5.684;2022-10-16T11:49:20;23.30;96.50
21489;DHT22;10906;45.194;5.684;2022-10-16T11:52:20;23.40;96.60
21489;DHT22;10906;45.194;5.684;2022-10-16T11:55:20;23.40;96.50
21489;DHT22;10906;45.194;5.684;2022-10-16T12:04:43;24.20;96.20
21489;DHT22;10906;45.194;5.684;2022-10-16T12:07:37;23.50;95.00
21489;DHT22;10906;45.194;5.684;2022-10-16T12:10:27;23.70;95.70
21489;DHT22;10906;45.194;5.684;2022-10-16T12:13:32;23.80;95.20
21489;DHT22;10906;45.194;5.684;2022-10-16T12:19:12;24.50;93.20
21489;DHT22;10906;45.194;5.684;2022-10-16T12:22:01;24.80;92.00
21489;DHT22;10906;45.194;5.684;2022-10-16T12:24:51;25.10;91.20
21489;DHT22;10906;45.194;5.684;2022-10-16T12:27:35;25.40;90.10
21489;DHT22;10906;45.194;5.684;2022-10-16T12:30:24;25.60;89.30
21489;DHT22;10906;45.194;5.684;2022-10-16T12:33:23;25.90;85.00
21489;DHT22;10906;45.194;5.684;2022-10-16T12:36:14;26.00;83.50
21489;DHT22;10906;45.194;5.684;2022-10-16T12:39:02;26.00;85.00
21489;DHT22;10906;45.194;5.684;2022-10-16T12:41:46;26.00;83.20
21489;DHT22;10906;45.194;5.684;2022-10-16T12:44:35;26.10;83.50
21489;DHT22;10906;45.194;5.684;2022-10-16T12:53:23;26.20;81.10
21489;DHT22;10906;45.194;5.684;2022-10-16T12:56:09;26.30;77.50
21489;DHT22;10906;45.194;5.684;2022-10-16T13:11:42;26.30;74.30
21489;DHT22;10906;45.194;5.684;2022-10-16T13:14:55;26.40;68.80
21489;DHT22;10906;45.194;5.684;2022-10-16T13:18:09;26.40;70.00
21489;DHT22;10906;45.194;5.684;2022-10-16T13:21:14;26.40;70.50
21489;DHT22;10906;45.194;5.684;2022-10-16T13:27:29;26.40;69.60
21489;DHT22;10906;45.194;5.684;2022-10-16T13:30:25;26.30;65.60
21489;DHT22;10906;45.194;5.684;2022-10-16T13:33:14;26.30;70.40
21489;DHT22;10906;45.194;5.684;2022-10-16T13:36:00;26.30;71.60
21489;DHT22;10906;45.194;5.684;2022-10-16T13:38:44;26.30;70.60
21489;DHT22;10906;45.194;5.684;2022-10-16T13:41:28;26.40;69.40
21489;DHT22;10906;45.194;5.684;2022-10-16T13:44:19;26.50;69.00
21489;DHT22;10906;45.194;5.684;2022-10-16T13:47:03;26.50;68.90
21489;DHT22;10906;45.194;5.684;2022-10-16T13:50:06;26.50;68.50
21489;DHT22;10906;45.194;5.684;2022-10-16T13:53:06;26.50;65.90
21489;DHT22;10906;45.194;5.684;2022-10-16T13:55:51;26.50;66.30
21489;DHT22;10906;45.194;5.684;2022-10-16T13:58:35;26.40;67.30
21489;DHT22;10906;45.194;5.684;2022-10-16T14:01:23;26.30;66.10
21489;DHT22;10906;45.194;5.684;2022-10-16T14:04:11;26.30;66.50
21489;DHT22;10906;45.194;5.684;2022-10-16T14:06:55;26.30;65.90
21489;DHT22;10906;45.194;5.684;2022-10-16T14:09:40;26.30;66.60
21489;DHT22;10906;45.194;5.684;2022-10-16T14:12:24;26.20;67.20
21489;DHT22;10906;45.194;5.684;2022-10-16T14:15:17;26.10;67.70
21489;DHT22;10906;45.194;5.684;2022-10-16T14:18:03;26.10;66.10
21489;DHT22;10906;45.194;5.684;2022-10-16T14:20:48;26.10;67.40
21489;DHT22;10906;45.194;5.684;2022-10-16T14:23:37;26.00;66.70
21489;DHT22;10906;45.194;5.684;2022-10-16T14:26:24;26.10;65.50
21489;DHT22;10906;45.194;5.684;2022-10-16T14:29:18;26.10;65.60
21489;DHT22;10906;45.194;5.684;2022-10-16T14:32:24;26.10;65.50
21489;DHT22;10906;45.194;5.684;2022-10-16T14:35:35;26.10;65.80
21489;DHT22;10906;45.194;5.684;2022-10-16T14:38:20;26.00;63.10
21489;DHT22;10906;45.194;5.684;2022-10-16T14:41:05;26.10;64.10
21489;DHT22;10906;45.194;5.684;2022-10-16T14:43:55;26.10;64.70
21489;DHT22;10906;45.194;5.684;2022-10-16T14:46:41;26.10;64.10
21489;DHT22;10906;45.194;5.684;2022-10-16T14:49:27;26.10;64.50
21489;DHT22;10906;45.194;5.684;2022-10-16T14:52:12;26.10;64.10
21489;DHT22;10906;45.194;5.684;2022-10-16T14:54:57;26.10;63.70
21489;DHT22;10906;45.194;5.684;2022-10-16T14:57:42;26.10;64.00
21489;DHT22;10906;45.194;5.684;2022-10-16T15:00:27;26.10;63.40
21489;DHT22;10906;45.194;5.684;2022-10-16T15:03:12;26.10;63.00
21489;DHT22;10906;45.194;5.684;2022-10-16T15:05:56;26.10;63.50
21489;DHT22;10906;45.194;5.684;2022-10-16T15:08:40;26.20;64.10
21489;DHT22;10906;45.194;5.684;2022-10-16T15:11:24;26.30;62.90
21489;DHT22;10906;45.194;5.684;2022-10-16T15:14:12;26.40;62.60
21489;DHT22;10906;45.194;5.684;2022-10-16T15:16:58;26.40;62.30
21489;DHT22;10906;45.194;5.684;2022-10-16T15:19:42;26.80;62.60
21489;DHT22;10906;45.194;5.684;2022-10-16T15:22:26;27.10;62.70
21489;DHT22;10906;45.194;5.684;2022-10-16T15:25:29;27.40;62.60
21489;DHT22;10906;45.194;5.684;2022-10-16T15:28:14;27.50;60.90
21489;DHT22;10906;45.194;5.684;2022-10-16T15:30:59;27.10;61.90
21489;DHT22;10906;45.194;5.684;2022-10-16T15:33:44;26.80;64.00
21489;DHT22;10906;45.194;5.684;2022-10-16T15:36:34;26.40;64.40
21489;DHT22;10906;45.194;5.684;2022-10-16T15:39:20;26.10;63.90
21489;DHT22;10906;45.194;5.684;2022-10-16T15:42:05;25.90;63.80
21489;DHT22;10906;45.194;5.684;2022-10-16T15:44:50;25.70;63.70
21489;DHT22;10906;45.194;5.684;2022-10-16T15:47:34;25.50;63.70
21489;DHT22;10906;45.194;5.684;2022-10-16T15:50:19;25.50;63.80
21489;DHT22;10906;45.194;5.684;2022-10-16T15:53:04;25.40;65.10
21489;DHT22;10906;45.194;5.684;2022-10-16T15:55:48;25.20;64.50
21489;DHT22;10906;45.194;5.684;2022-10-16T16:02:15;24.50;64.00
21489;DHT22;10906;45.194;5.684;2022-10-16T16:05:03;24.90;64.40
21489;DHT22;10906;45.194;5.684;2022-10-16T16:07:48;24.80;64.60
21489;DHT22;10906;45.194;5.684;2022-10-16T16:10:32;24.80;65.00
21489;DHT22;10906;45.194;5.684;2022-10-16T16:13:17;24.80;64.50
21489;DHT22;10906;45.194;5.684;2022-10-16T16:16:00;24.70;64.60
21489;DHT22;10906;45.194;5.684;2022-10-16T16:18:45;24.70;65.50
21489;DHT22;10906;45.194;5.684;2022-10-16T16:21:30;24.60;65.00
21489;DHT22;10906;45.194;5.684;2022-10-16T16:24:14;24.60;65.10
21489;DHT22;10906;45.194;5.684;2022-10-16T16:27:01;24.50;65.00
21489;DHT22;10906;45.194;5.684;2022-10-16T16:29:48;24.40;66.10
21489;DHT22;10906;45.194;5.684;2022-10-16T16:32:41;24.40;66.20
21489;DHT22;10906;45.194;5.684;2022-10-16T16:35:26;24.20;66.50
21489;DHT22;10906;45.194;5.684;2022-10-16T16:38:14;24.00;67.40
21489;DHT22;10906;45.194;5.684;2022-10-16T16:40:58;23.90;69.20
21489;DHT22;10906;45.194;5.684;2022-10-16T16:43:46;23.80;69.50
21489;DHT22;10906;45.194;5.684;2022-10-16T16:46:35;23.20;69.20
21489;DHT22;10906;45.194;5.684;2022-10-16T16:52:29;22.70;70.00
21489;DHT22;10906;45.194;5.684;2022-10-16T16:55:19;23.20;71.20
21489;DHT22;10906;45.194;5.684;2022-10-16T16:58:03;23.20;71.50
21489;DHT22;10906;45.194;5.684;2022-10-16T17:00:48;23.10;71.00
21489;DHT22;10906;45.194;5.684;2022-10-16T17:03:35;23.00;72.00
21489;DHT22;10906;45.194;5.684;2022-10-16T17:06:21;23.00;71.60
21489;DHT22;10906;45.194;5.684;2022-10-16T17:09:10;22.90;71.70
21489;DHT22;10906;45.194;5.684;2022-10-16T17:11:57;22.90;71.50
21489;DHT22;10906;45.194;5.684;2022-10-16T18:19:02;20.70;83.00
21489;DHT22;10906;45.194;5.684;2022-10-16T18:58:22;20.20;89.60
21489;DHT22;10906;45.194;5.684;2022-10-16T19:01:23;19.70;87.70
21489;DHT22;10906;45.194;5.684;2022-10-16T19:04:24;19.60;88.80
21489;DHT22;10906;45.194;5.684;2022-10-16T19:07:14;18.30;87.20
21489;DHT22;10906;45.194;5.684;2022-10-16T19:10:10;19.50;88.30
21489;DHT22;10906;45.194;5.684;2022-10-16T19:13:05;19.60;89.00
21489;DHT22;10906;45.194;5.684;2022-10-16T19:15:50;19.60;89.60
21489;DHT22;10906;45.194;5.684;2022-10-16T19:18:34;19.60;89.70
21489;DHT22;10906;45.194;5.684;2022-10-16T19:21:23;19.60;89.50
21489;DHT22;10906;45.194;5.684;2022-10-16T19:24:11;19.60;89.60
21489;DHT22;10906;45.194;5.684;2022-10-16T19:26:56;19.60;89.50
21489;DHT22;10906;45.194;5.684;2022-10-16T19:29:41;19.60;90.10
21489;DHT22;10906;45.194;5.684;2022-10-16T19:32:25;19.50;90.20
21489;DHT22;10906;45.194;5.684;2022-10-16T19:35:09;19.50;90.10
21489;DHT22;10906;45.194;5.684;2022-10-16T19:37:53;19.50;90.50
21489;DHT22;10906;45.194;5.684;2022-10-16T19:40:37;19.40;91.00
21489;DHT22;10906;45.194;5.684;2022-10-16T19:43:22;19.40;90.60
21489;DHT22;10906;45.194;5.684;2022-10-16T19:46:09;19.40;91.00
21489;DHT22;10906;45.194;5.684;2022-10-16T19:48:55;19.30;90.80
21489;DHT22;10906;45.194;5.684;2022-10-16T19:51:40;19.30;91.20
21489;DHT22;10906;45.194;5.684;2022-10-16T19:54:24;19.30;91.50
21489;DHT22;10906;45.194;5.684;2022-10-16T19:57:08;19.30;91.50
21489;DHT22;10906;45.194;5.684;2022-10-16T19:59:53;19.30;91.80
21489;DHT22;10906;45.194;5.684;2022-10-16T20:02:37;19.30;92.10
21489;DHT22;10906;45.194;5.684;2022-10-16T20:05:21;19.20;92.30
21489;DHT22;10906;45.194;5.684;2022-10-16T20:08:05;19.20;92.60
21489;DHT22;10906;45.194;5.684;2022-10-16T20:10:51;19.10;92.80
21489;DHT22;10906;45.194;5.684;2022-10-16T20:13:36;19.20;93.20
21489;DHT22;10906;45.194;5.684;2022-10-16T20:16:20;19.10;93.50
21489;DHT22;10906;45.194;5.684;2022-10-16T20:19:05;19.20;93.70
21489;DHT22;10906;45.194;5.684;2022-10-16T20:21:49;19.20;94.30
21489;DHT22;10906;45.194;5.684;2022-10-16T20:24:34;19.10;94.10
21489;DHT22;10906;45.194;5.684;2022-10-16T20:27:19;19.00;94.40
21489;DHT22;10906;45.194;5.684;2022-10-16T20:30:04;19.00;94.60
21489;DHT22;10906;45.194;5.684;2022-10-16T20:32:48;18.90;94.80
21489;DHT22;10906;45.194;5.684;2022-10-16T20:35:40;18.90;95.00
21489;DHT22;10906;45.194;5.684;2022-10-16T20:38:24;18.90;95.30
21489;DHT22;10906;45.194;5.684;2022-10-16T20:41:09;18.80;95.60
21489;DHT22;10906;45.194;5.684;2022-10-16T20:43:54;18.80;95.70
21489;DHT22;10906;45.194;5.684;2022-10-16T20:46:39;18.80;96.30
21489;DHT22;10906;45.194;5.684;2022-10-16T20:49:23;18.80;96.20
21489;DHT22;10906;45.194;5.684;2022-10-16T20:52:08;18.70;96.40
21489;DHT22;10906;45.194;5.684;2022-10-16T20:54:52;18.70;96.60
21489;DHT22;10906;45.194;5.684;2022-10-16T20:57:37;18.60;96.70
21489;DHT22;10906;45.194;5.684;2022-10-16T21:00:22;18.60;97.00
21489;DHT22;10906;45.194;5.684;2022-10-16T21:03:07;18.50;97.10
21489;DHT22;10906;45.194;5.684;2022-10-16T21:05:52;18.50;97.20
21489;DHT22;10906;45.194;5.684;2022-10-16T21:08:38;18.40;97.40
21489;DHT22;10906;45.194;5.684;2022-10-16T21:11:26;18.30;97.40
21489;DHT22;10906;45.194;5.684;2022-10-16T21:14:10;18.20;97.60
21489;DHT22;10906;45.194;5.684;2022-10-16T21:16:55;18.20;97.80
21489;DHT22;10906;45.194;5.684;2022-10-16T21:19:39;18.10;98.00
21489;DHT22;10906;45.194;5.684;2022-10-16T21:22:27;18.20;98.20
21489;DHT22;10906;45.194;5.684;2022-10-16T21:25:12;18.20;99.40
21489;DHT22;10906;45.194;5.684;2022-10-16T21:27:56;18.10;98.20
21489;DHT22;10906;45.194;5.684;2022-10-16T21:30:40;17.90;98.30
21489;DHT22;10906;45.194;5.684;2022-10-16T21:33:24;17.90;99.60
21489;DHT22;10906;45.194;5.684;2022-10-16T21:36:14;17.90;98.70
21489;DHT22;10906;45.194;5.684;2022-10-16T21:39:10;17.90;98.70
21489;DHT22;10906;45.194;5.684;2022-10-16T21:41:54;17.80;98.90
21489;DHT22;10906;45.194;5.684;2022-10-16T21:44:39;17.70;98.90
21489;DHT22;10906;45.194;5.684;2022-10-16T21:47:23;17.70;98.90
21489;DHT22;10906;45.194;5.684;2022-10-16T21:50:08;17.70;99.00
21489;DHT22;10906;45.194;5.684;2022-10-16T21:52:53;17.70;99.10
21489;DHT22;10906;45.194;5.684;2022-10-16T21:55:37;17.60;99.20
21489;DHT22;10906;45.194;5.684;2022-10-16T21:58:21;17.60;99.40
